sensor_id;sensor_type;location;lat;lon;timestamp;pressure;altitude;pressure_sealevel;temperature;humidity
16613;BME280;8419;52.358;9.752;2023-04-02T00:00:12;100554.00;;;15.57;39.76
16613;BME280;8419;52.358;9.752;2023-04-02T00:03:01;100555.00;;;15.60;39.62
16613;BME280;8419;52.358;9.752;2023-04-02T00:05:47;100567.00;;;15.52;39.62
16613;BME280;8419;52.358;9.752;2023-04-02T00:08:37;100572.00;;;15.52;39.51
16613;BME280;8419;52.358;9.752;2023-04-02T00:11:29;100575.00;;;15.39;39.70
16613;BME280;8419;52.358;9.752;2023-04-02T00:14:22;100578.00;;;15.35;39.68
16613;BME280;8419;52.358;9.752;2023-04-02T00:17:09;100586.00;;;15.32;39.62
16613;BME280;8419;52.358;9.752;2023-04-02T00:19:57;100591.00;;;15.31;39.48
16613;BME280;8419;52.358;9.752;2023-04-02T00:22:44;100601.00;;;15.26;39.50
16613;BME280;8419;52.358;9.752;2023-04-02T00:25:35;100605.00;;;15.24;39.49
16613;BME280;8419;52.358;9.752;2023-04-02T00:28:22;100608.00;;;15.23;39.42
16613;BME280;8419;52.358;9.752;2023-04-02T00:31:09;100605.00;;;15.26;39.28
16613;BME280;8419;52.358;9.752;2023-04-02T00:33:56;100616.00;;;15.24;39.28
16613;BME280;8419;52.358;9.752;2023-04-02T00:36:42;100617.00;;;15.22;39.25
16613;BME280;8419;52.358;9.752;2023-04-02T00:39:31;100628.00;;;15.22;39.18
16613;BME280;8419;52.358;9.752;2023-04-02T00:42:19;100629.00;;;15.22;39.14
16613;BME280;8419;52.358;9.752;2023-04-02T00:45:12;100630.00;;;15.18;39.11
16613;BME280;8419;52.358;9.752;2023-04-02T00:48:19;100636.00;;;15.12;39.11
16613;BME280;8419;52.358;9.752;2023-04-02T00:51:15;100637.00;;;15.11;39.10
16613;BME280;8419;52.358;9.752;2023-04-02T00:54:04;100643.00;;;15.09;39.07
16613;BME280;8419;52.358;9.752;2023-04-02T00:56:52;100645.00;;;15.05;39.01
16613;BME280;8419;52.358;9.752;2023-04-02T00:59:51;100654.00;;;15.03;38.98
16613;BME280;8419;52.358;9.752;2023-04-02T01:02:38;100665.00;;;15.06;38.93
16613;BME280;8419;52.358;9.752;2023-04-02T01:05:26;100671.00;;;15.06;38.84
16613;BME280;8419;52.358;9.752;2023-04-02T01:08:25;100666.00;;;15.08;38.76
16613;BME280;8419;52.358;9.752;2023-04-02T01:11:35;100677.00;;;15.04;38.72
16613;BME280;8419;52.358;9.752;2023-04-02T01:14:38;100678.00;;;14.99;38.71
16613;BME280;8419;52.358;9.752;2023-04-02T01:17:36;100681.00;;;14.90;38.74
16613;BME280;8419;52.358;9.752;2023-04-02T01:20:37;100682.00;;;14.90;38.71
16613;BME280;8419;52.358;9.752;2023-04-02T01:23:32;100684.00;;;14.92;38.64
16613;BME280;8419;52.358;9.752;2023-04-02T01:26:27;100686.00;;;14.88;38.62
16613;BME280;8419;52.358;9.752;2023-04-02T01:29:17;100687.00;;;14.87;38.61
16613;BME280;8419;52.358;9.752;2023-04-02T01:32:06;100694.00;;;14.88;38.57
16613;BME280;8419;52.358;9.752;2023-04-02T01:34:55;100700.00;;;14.85;38.54
16613;BME280;8419;52.358;9.752;2023-04-02T01:37:48;100708.00;;;14.79;38.47
16613;BME280;8419;52.358;9.752;2023-04-02T01:40:38;100705.00;;;14.74;38.47
16613;BME280;8419;52.358;9.752;2023-04-02T01:43:30;100719.00;;;14.77;38.35
16613;BME280;8419;52.358;9.752;2023-04-02T01:46:26;100734.00;;;14.79;38.29
16613;BME280;8419;52.358;9.752;2023-04-02T01:49:16;100733.00;;;14.75;38.28
16613;BME280;8419;52.358;9.752;2023-04-02T01:52:04;100737.00;;;14.74;38.20
16613;BME280;8419;52.358;9.752;2023-04-02T01:54:51;100734.00;;;14.74;38.16
16613;BME280;8419;52.358;9.752;2023-04-02T01:57:38;100747.00;;;14.71;38.15
16613;BME280;8419;52.358;9.752;2023-04-02T02:00:26;100752.00;;;14.72;38.08
16613;BME280;8419;52.358;9.752;2023-04-02T02:03:15;100754.00;;;14.73;37.95
16613;BME280;8419;52.358;9.752;2023-04-02T02:06:01;100765.00;;;14.73;37.89
16613;BME280;8419;52.358;9.752;2023-04-02T02:08:49;100777.00;;;14.74;37.83
16613;BME280;8419;52.358;9.752;2023-04-02T02:11:35;100783.00;;;14.75;37.78
16613;BME280;8419;52.358;9.752;2023-04-02T02:14:23;100792.00;;;14.74;37.78
16613;BME280;8419;52.358;9.752;2023-04-02T02:17:15;100782.00;;;14.74;37.69
16613;BME280;8419;52.358;9.752;2023-04-02T02:20:02;100790.00;;;14.69;37.76
16613;BME280;8419;52.358;9.752;2023-04-02T02:22:54;100799.00;;;14.71;37.69
16613;BME280;8419;52.358;9.752;2023-04-02T02:25:40;100801.00;;;14.70;37.71
16613;BME280;8419;52.358;9.752;2023-04-02T02:28:31;100806.00;;;14.65;37.68
16613;BME280;8419;52.358;9.752;2023-04-02T02:31:21;100809.00;;;14.62;37.73
16613;BME280;8419;52.358;9.752;2023-04-02T02:34:17;100814.00;;;14.62;37.69
16613;BME280;8419;52.358;9.752;2023-04-02T02:37:12;100828.00;;;14.67;37.54
16613;BME280;8419;52.358;9.752;2023-04-02T02:40:00;100827.00;;;14.60;37.58
16613;BME280;8419;52.358;9.752;2023-04-02T02:42:51;100833.00;;;14.62;37.50
16613;BME280;8419;52.358;9.752;2023-04-02T02:45:40;100835.00;;;14.60;37.45
16613;BME280;8419;52.358;9.752;2023-04-02T02:48:33;100848.00;;;14.53;37.52
16613;BME280;8419;52.358;9.752;2023-04-02T02:51:25;100842.00;;;14.54;37.47
16613;BME280;8419;52.358;9.752;2023-04-02T02:54:13;100855.00;;;14.51;37.42
16613;BME280;8419;52.358;9.752;2023-04-02T02:57:01;100862.00;;;14.49;37.38
16613;BME280;8419;52.358;9.752;2023-04-02T02:59:48;100861.00;;;14.48;37.34
16613;BME280;8419;52.358;9.752;2023-04-02T03:02:36;100876.00;;;14.48;37.29
16613;BME280;8419;52.358;9.752;2023-04-02T03:05:25;100880.00;;;14.47;37.26
16613;BME280;8419;52.358;9.752;2023-04-02T03:08:18;100884.00;;;14.46;37.22
16613;BME280;8419;52.358;9.752;2023-04-02T03:11:10;100891.00;;;14.47;37.25
16613;BME280;8419;52.358;9.752;2023-04-02T03:14:02;100894.00;;;14.49;37.17
16613;BME280;8419;52.358;9.752;2023-04-02T03:16:57;100899.00;;;14.52;37.11
16613;BME280;8419;52.358;9.752;2023-04-02T03:19:48;100907.00;;;14.50;37.08
16613;BME280;8419;52.358;9.752;2023-04-02T03:22:39;100909.00;;;14.50;37.05
16613;BME280;8419;52.358;9.752;2023-04-02T03:25:34;100910.00;;;14.52;37.01
16613;BME280;8419;52.358;9.752;2023-04-02T03:28:26;100918.00;;;14.54;36.96
16613;BME280;8419;52.358;9.752;2023-04-02T03:31:16;100923.00;;;14.52;36.91
16613;BME280;8419;52.358;9.752;2023-04-02T03:34:08;100925.00;;;14.55;36.85
16613;BME280;8419;52.358;9.752;2023-04-02T03:36:58;100933.00;;;14.55;36.75
16613;BME280;8419;52.358;9.752;2023-04-02T03:39:51;100937.00;;;14.48;36.74
16613;BME280;8419;52.358;9.752;2023-04-02T03:42:40;100946.00;;;14.48;36.71
16613;BME280;8419;52.358;9.752;2023-04-02T03:45:34;100949.00;;;14.44;36.66
16613;BME280;8419;52.358;9.752;2023-04-02T03:48:27;100962.00;;;14.42;36.63
16613;BME280;8419;52.358;9.752;2023-04-02T03:51:20;100959.00;;;14.44;36.56
16613;BME280;8419;52.358;9.752;2023-04-02T03:54:12;100965.00;;;14.44;36.53
16613;BME280;8419;52.358;9.752;2023-04-02T03:57:00;100972.00;;;14.47;36.46
16613;BME280;8419;52.358;9.752;2023-04-02T03:59:49;100984.00;;;14.44;36.42
16613;BME280;8419;52.358;9.752;2023-04-02T04:02:41;100987.00;;;14.41;36.42
16613;BME280;8419;52.358;9.752;2023-04-02T04:05:29;100980.00;;;14.44;36.35
16613;BME280;8419;52.358;9.752;2023-04-02T04:08:19;100985.00;;;14.43;36.32
16613;BME280;8419;52.358;9.752;2023-04-02T04:11:11;100995.00;;;14.43;36.25
16613;BME280;8419;52.358;9.752;2023-04-02T04:14:01;101012.00;;;14.42;36.17
16613;BME280;8419;52.358;9.752;2023-04-02T04:16:52;101012.00;;;14.37;36.15
16613;BME280;8419;52.358;9.752;2023-04-02T04:19:45;101019.00;;;14.35;36.14
16613;BME280;8419;52.358;9.752;2023-04-02T04:22:32;101022.00;;;14.34;36.07
16613;BME280;8419;52.358;9.752;2023-04-02T04:25:20;101026.00;;;14.33;36.04
16613;BME280;8419;52.358;9.752;2023-04-02T04:28:14;101038.00;;;14.30;36.01
16613;BME280;8419;52.358;9.752;2023-04-02T04:31:14;101038.00;;;14.32;35.95
16613;BME280;8419;52.358;9.752;2023-04-02T04:34:10;101041.00;;;14.31;35.91
16613;BME280;8419;52.358;9.752;2023-04-02T04:37:02;101040.00;;;14.29;35.90
16613;BME280;8419;52.358;9.752;2023-04-02T04:39:55;101047.00;;;14.27;35.89
16613;BME280;8419;52.358;9.752;2023-04-02T04:42:42;101045.00;;;13.88;36.53
16613;BME280;8419;52.358;9.752;2023-04-02T04:45:36;101062.00;;;13.82;36.62
16613;BME280;8419;52.358;9.752;2023-04-02T04:48:28;101059.00;;;13.82;36.57
16613;BME280;8419;52.358;9.752;2023-04-02T04:51:21;101072.00;;;13.75;36.58
16613;BME280;8419;52.358;9.752;2023-04-02T04:54:12;101074.00;;;13.76;36.56
16613;BME280;8419;52.358;9.752;2023-04-02T04:57:00;101083.00;;;13.75;36.59
16613;BME280;8419;52.358;9.752;2023-04-02T04:59:51;101090.00;;;13.79;36.49
16613;BME280;8419;52.358;9.752;2023-04-02T05:02:45;101095.00;;;13.83;36.41
16613;BME280;8419;52.358;9.752;2023-04-02T05:05:37;101099.00;;;13.85;36.32
16613;BME280;8419;52.358;9.752;2023-04-02T05:08:26;101110.00;;;13.84;36.30
16613;BME280;8419;52.358;9.752;2023-04-02T05:11:22;101115.00;;;13.85;36.23
16613;BME280;8419;52.358;9.752;2023-04-02T05:14:18;101126.00;;;13.84;36.21
16613;BME280;8419;52.358;9.752;2023-04-02T05:17:09;101126.00;;;13.84;36.17
16613;BME280;8419;52.358;9.752;2023-04-02T05:20:02;101131.00;;;13.87;36.11
16613;BME280;8419;52.358;9.752;2023-04-02T05:22:56;101148.00;;;13.86;36.06
16613;BME280;8419;52.358;9.752;2023-04-02T05:25:52;101139.00;;;13.87;36.01
16613;BME280;8419;52.358;9.752;2023-04-02T05:28:42;101147.00;;;13.87;35.99
16613;BME280;8419;52.358;9.752;2023-04-02T05:31:36;101152.00;;;13.88;35.97
16613;BME280;8419;52.358;9.752;2023-04-02T05:34:27;101164.00;;;13.86;35.97
16613;BME280;8419;52.358;9.752;2023-04-02T05:37:16;101157.00;;;14.00;35.69
16613;BME280;8419;52.358;9.752;2023-04-02T05:40:11;101172.00;;;14.00;35.64
16613;BME280;8419;52.358;9.752;2023-04-02T05:42:59;101169.00;;;14.01;35.57
16613;BME280;8419;52.358;9.752;2023-04-02T05:45:52;101179.00;;;14.07;35.46
16613;BME280;8419;52.358;9.752;2023-04-02T05:48:40;101183.00;;;14.47;34.78
16613;BME280;8419;52.358;9.752;2023-04-02T05:51:29;101182.00;;;14.25;35.08
16613;BME280;8419;52.358;9.752;2023-04-02T05:54:23;101195.00;;;14.13;35.24
16613;BME280;8419;52.358;9.752;2023-04-02T05:57:14;101192.00;;;14.09;35.32
16613;BME280;8419;52.358;9.752;2023-04-02T06:00:06;101205.00;;;14.43;34.72
16613;BME280;8419;52.358;9.752;2023-04-02T06:02:59;101209.00;;;14.52;34.53
16613;BME280;8419;52.358;9.752;2023-04-02T06:05:46;101208.00;;;14.52;34.45
16613;BME280;8419;52.358;9.752;2023-04-02T06:08:35;101206.00;;;14.56;34.36
16613;BME280;8419;52.358;9.752;2023-04-02T06:11:28;101224.00;;;14.55;34.26
16613;BME280;8419;52.358;9.752;2023-04-02T06:14:15;101230.00;;;14.59;34.24
16613;BME280;8419;52.358;9.752;2023-04-02T06:17:01;101232.00;;;14.37;34.68
16613;BME280;8419;52.358;9.752;2023-04-02T06:19:47;101232.00;;;14.32;34.74
16613;BME280;8419;52.358;9.752;2023-04-02T06:22:35;101245.00;;;14.58;34.33
16613;BME280;8419;52.358;9.752;2023-04-02T06:25:25;101255.00;;;14.74;34.03
16613;BME280;8419;52.358;9.752;2023-04-02T06:28:16;101259.00;;;14.81;33.94
16613;BME280;8419;52.358;9.752;2023-04-02T06:31:08;101265.00;;;14.88;33.82
16613;BME280;8419;52.358;9.752;2023-04-02T06:33:55;101278.00;;;14.88;33.84
16613;BME280;8419;52.358;9.752;2023-04-02T06:36:41;101278.00;;;14.85;33.91
16613;BME280;8419;52.358;9.752;2023-04-02T06:39:27;101284.00;;;14.94;33.69
16613;BME280;8419;52.358;9.752;2023-04-02T06:42:17;101290.00;;;14.93;33.65
16613;BME280;8419;52.358;9.752;2023-04-02T06:45:04;101281.00;;;14.99;33.53
16613;BME280;8419;52.358;9.752;2023-04-02T06:47:51;101294.00;;;15.00;33.52
16613;BME280;8419;52.358;9.752;2023-04-02T06:50:44;101308.00;;;14.97;33.52
16613;BME280;8419;52.358;9.752;2023-04-02T06:53:34;101313.00;;;14.96;33.59
16613;BME280;8419;52.358;9.752;2023-04-02T06:56:27;101309.00;;;15.03;33.50
16613;BME280;8419;52.358;9.752;2023-04-02T06:59:17;101312.00;;;14.98;33.49
16613;BME280;8419;52.358;9.752;2023-04-02T07:02:10;101316.00;;;15.00;33.52
16613;BME280;8419;52.358;9.752;2023-04-02T07:05:03;101329.00;;;15.10;33.38
16613;BME280;8419;52.358;9.752;2023-04-02T07:07:49;101329.00;;;15.07;33.40
16613;BME280;8419;52.358;9.752;2023-04-02T07:10:35;101331.00;;;15.03;33.42
16613;BME280;8419;52.358;9.752;2023-04-02T07:13:23;101335.00;;;15.12;33.34
16613;BME280;8419;52.358;9.752;2023-04-02T07:16:14;101342.00;;;15.19;33.27
16613;BME280;8419;52.358;9.752;2023-04-02T07:19:00;101345.00;;;15.21;33.20
16613;BME280;8419;52.358;9.752;2023-04-02T07:21:48;101353.00;;;15.27;33.17
16613;BME280;8419;52.358;9.752;2023-04-02T07:24:34;101360.00;;;15.37;33.07
16613;BME280;8419;52.358;9.752;2023-04-02T07:27:19;101371.00;;;15.38;33.08
16613;BME280;8419;52.358;9.752;2023-04-02T07:30:10;101360.00;;;15.43;33.01
16613;BME280;8419;52.358;9.752;2023-04-02T07:32:55;101377.00;;;15.38;33.00
16613;BME280;8419;52.358;9.752;2023-04-02T07:35:41;101382.00;;;15.36;33.02
16613;BME280;8419;52.358;9.752;2023-04-02T07:38:27;101390.00;;;15.41;32.94
16613;BME280;8419;52.358;9.752;2023-04-02T07:41:13;101389.00;;;15.40;32.97
16613;BME280;8419;52.358;9.752;2023-04-02T07:43:59;101392.00;;;15.37;nan
16613;BME280;8419;52.358;9.752;2023-04-02T07:46:45;101392.00;;;15.36;33.01
16613;BME280;8419;52.358;9.752;2023-04-02T07:49:31;101395.00;;;15.13;33.44
16613;BME280;8419;52.358;9.752;2023-04-02T07:52:16;101405.00;;;15.17;33.54
16613;BME280;8419;52.358;9.752;2023-04-02T07:55:01;101407.00;;;15.61;32.93
16613;BME280;8419;52.358;9.752;2023-04-02T07:57:50;101421.00;;;15.69;32.80
16613;BME280;8419;52.358;9.752;2023-04-02T08:00:35;101430.00;;;15.77;32.70
16613;BME280;8419;52.358;9.752;2023-04-02T08:03:22;101432.00;;;15.82;32.61
16613;BME280;8419;52.358;9.752;2023-04-02T08:06:08;101437.00;;;15.83;32.54
16613;BME280;8419;52.358;9.752;2023-04-02T08:08:54;101439.00;;;15.76;32.59
16613;BME280;8419;52.358;9.752;2023-04-02T08:11:40;101451.00;;;15.84;32.53
16613;BME280;8419;52.358;9.752;2023-04-02T08:14:26;101451.00;;;15.93;32.47
16613;BME280;8419;52.358;9.752;2023-04-02T08:17:11;101452.00;;;15.94;32.39
16613;BME280;8419;52.358;9.752;2023-04-02T08:19:57;101462.00;;;15.92;32.44
16613;BME280;8419;52.358;9.752;2023-04-02T08:22:45;101459.00;;;15.91;32.44
16613;BME280;8419;52.358;9.752;2023-04-02T08:25:30;101472.00;;;15.99;32.32
16613;BME280;8419;52.358;9.752;2023-04-02T08:28:16;101475.00;;;16.07;32.18
16613;BME280;8419;52.358;9.752;2023-04-02T08:31:02;101475.00;;;16.10;32.12
16613;BME280;8419;52.358;9.752;2023-04-02T08:33:48;101491.00;;;16.13;32.07
16613;BME280;8419;52.358;9.752;2023-04-02T08:36:35;101492.00;;;16.11;32.09
16613;BME280;8419;52.358;9.752;2023-04-02T08:39:22;101493.00;;;16.10;32.07
16613;BME280;8419;52.358;9.752;2023-04-02T08:42:20;101496.00;;;16.13;32.02
16613;BME280;8419;52.358;9.752;2023-04-02T08:45:18;101505.00;;;16.18;32.00
16613;BME280;8419;52.358;9.752;2023-04-02T08:48:08;101501.00;;;16.27;31.90
16613;BME280;8419;52.358;9.752;2023-04-02T08:50:55;101510.00;;;16.31;31.90
16613;BME280;8419;52.358;9.752;2023-04-02T08:53:42;101524.00;;;16.31;31.84
16613;BME280;8419;52.358;9.752;2023-04-02T08:56:35;101525.00;;;16.37;31.78
16613;BME280;8419;52.358;9.752;2023-04-02T08:59:31;101531.00;;;16.34;31.80
16613;BME280;8419;52.358;9.752;2023-04-02T09:02:28;101530.00;;;16.36;31.78
16613;BME280;8419;52.358;9.752;2023-04-02T09:05:19;101536.00;;;16.50;31.63
16613;BME280;8419;52.358;9.752;2023-04-02T09:08:15;101530.00;;;16.55;31.53
16613;BME280;8419;52.358;9.752;2023-04-02T09:11:07;101539.00;;;16.59;31.45
16613;BME280;8419;52.358;9.752;2023-04-02T09:13:56;101538.00;;;16.64;31.43
16613;BME280;8419;52.358;9.752;2023-04-02T09:16:46;101549.00;;;16.67;31.40
16613;BME280;8419;52.358;9.752;2023-04-02T09:19:35;101559.00;;;16.82;31.20
16613;BME280;8419;52.358;9.752;2023-04-02T09:22:23;101567.00;;;16.85;31.16
16613;BME280;8419;52.358;9.752;2023-04-02T09:25:14;101569.00;;;16.88;31.11
16613;BME280;8419;52.358;9.752;2023-04-02T09:28:04;101581.00;;;16.95;31.02
16613;BME280;8419;52.358;9.752;2023-04-02T09:31:00;101582.00;;;17.00;30.95
16613;BME280;8419;52.358;9.752;2023-04-02T09:33:50;101579.00;;;17.10;30.83
16613;BME280;8419;52.358;9.752;2023-04-02T09:36:39;101589.00;;;17.11;30.80
16613;BME280;8419;52.358;9.752;2023-04-02T09:39:25;101581.00;;;17.20;30.75
16613;BME280;8419;52.358;9.752;2023-04-02T09:42:29;101592.00;;;17.28;30.59
16613;BME280;8419;52.358;9.752;2023-04-02T09:45:20;101601.00;;;17.32;30.53
16613;BME280;8419;52.358;9.752;2023-04-02T09:48:20;101599.00;;;17.37;30.51
16613;BME280;8419;52.358;9.752;2023-04-02T09:51:13;101601.00;;;17.48;30.39
16613;BME280;8419;52.358;9.752;2023-04-02T09:54:07;101612.00;;;17.64;30.19
16613;BME280;8419;52.358;9.752;2023-04-02T09:57:01;101619.00;;;17.62;30.20
16613;BME280;8419;52.358;9.752;2023-04-02T09:59:48;101623.00;;;17.67;30.15
16613;BME280;8419;52.358;9.752;2023-04-02T10:03:04;101623.00;;;17.70;30.12
16613;BME280;8419;52.358;9.752;2023-04-02T10:06:04;101632.00;;;17.72;30.07
16613;BME280;8419;52.358;9.752;2023-04-02T10:08:50;101641.00;;;17.79;29.97
16613;BME280;8419;52.358;9.752;2023-04-02T10:11:36;101649.00;;;17.92;29.82
16613;BME280;8419;52.358;9.752;2023-04-02T10:14:24;101656.00;;;18.01;29.70
16613;BME280;8419;52.358;9.752;2023-04-02T10:17:16;101652.00;;;18.08;29.57
16613;BME280;8419;52.358;9.752;2023-04-02T10:20:13;101655.00;;;18.19;29.47
16613;BME280;8419;52.358;9.752;2023-04-02T10:23:01;101663.00;;;18.23;29.39
16613;BME280;8419;52.358;9.752;2023-04-02T10:25:52;101666.00;;;18.43;29.23
16613;BME280;8419;52.358;9.752;2023-04-02T10:28:59;101673.00;;;18.47;29.11
16613;BME280;8419;52.358;9.752;2023-04-02T10:31:56;101667.00;;;18.56;28.97
16613;BME280;8419;52.358;9.752;2023-04-02T10:34:49;101678.00;;;18.66;28.90
16613;BME280;8419;52.358;9.752;2023-04-02T10:41:25;101680.00;;;19.05;28.30
16613;BME280;8419;52.358;9.752;2023-04-02T10:44:22;101675.00;;;18.97;28.23
16613;BME280;8419;52.358;9.752;2023-04-02T10:47:18;101681.00;;;19.12;28.09
16613;BME280;8419;52.358;9.752;2023-04-02T10:50:26;101687.00;;;19.22;27.95
16613;BME280;8419;52.358;9.752;2023-04-02T10:53:17;101686.00;;;19.25;27.96
16613;BME280;8419;52.358;9.752;2023-04-02T10:56:08;101686.00;;;19.35;27.83
16613;BME280;8419;52.358;9.752;2023-04-02T10:59:00;101685.00;;;19.40;27.70
16613;BME280;8419;52.358;9.752;2023-04-02T11:01:48;101696.00;;;19.38;27.62
16613;BME280;8419;52.358;9.752;2023-04-02T11:04:42;101693.00;;;19.42;27.56
16613;BME280;8419;52.358;9.752;2023-04-02T11:07:33;101698.00;;;19.60;27.32
16613;BME280;8419;52.358;9.752;2023-04-02T11:10:28;101706.00;;;19.62;27.26
16613;BME280;8419;52.358;9.752;2023-04-02T11:13:20;101706.00;;;19.68;27.19
16613;BME280;8419;52.358;9.752;2023-04-02T11:16:11;101710.00;;;19.73;27.16
16613;BME280;8419;52.358;9.752;2023-04-02T11:19:20;101711.00;;;19.98;26.96
16613;BME280;8419;52.358;9.752;2023-04-02T11:22:15;101712.00;;;20.07;26.85
16613;BME280;8419;52.358;9.752;2023-04-02T11:25:02;101711.00;;;19.98;26.89
16613;BME280;8419;52.358;9.752;2023-04-02T11:27:48;101715.00;;;20.02;26.85
16613;BME280;8419;52.358;9.752;2023-04-02T11:30:34;101711.00;;;20.30;26.51
16613;BME280;8419;52.358;9.752;2023-04-02T11:33:38;101716.00;;;20.66;26.21
16613;BME280;8419;52.358;9.752;2023-04-02T11:36:59;101717.00;;;21.08;25.92
16613;BME280;8419;52.358;9.752;2023-04-02T11:39:51;101719.00;;;21.37;25.64
16613;BME280;8419;52.358;9.752;2023-04-02T11:42:44;101723.00;;;21.54;25.50
16613;BME280;8419;52.358;9.752;2023-04-02T11:45:53;101726.00;;;21.86;25.19
16613;BME280;8419;52.358;9.752;2023-04-02T11:48:40;101730.00;;;22.05;25.12
16613;BME280;8419;52.358;9.752;2023-04-02T11:51:48;101740.00;;;21.98;25.13
16613;BME280;8419;52.358;9.752;2023-04-02T11:54:37;101740.00;;;22.04;25.09
16613;BME280;8419;52.358;9.752;2023-04-02T11:57:38;101744.00;;;21.89;25.20
16613;BME280;8419;52.358;9.752;2023-04-02T12:04:18;101742.00;;;21.32;25.32
16613;BME280;8419;52.358;9.752;2023-04-02T12:07:35;101748.00;;;20.99;25.46
16613;BME280;8419;52.358;9.752;2023-04-02T12:10:52;101743.00;;;21.06;25.50
16613;BME280;8419;52.358;9.752;2023-04-02T12:13:50;101752.00;;;21.29;25.27
16613;BME280;8419;52.358;9.752;2023-04-02T12:16:37;101739.00;;;21.45;25.08
16613;BME280;8419;52.358;9.752;2023-04-02T12:19:25;101739.00;;;21.30;25.02
16613;BME280;8419;52.358;9.752;2023-04-02T12:22:19;101750.00;;;21.21;25.07
16613;BME280;8419;52.358;9.752;2023-04-02T12:25:22;101754.00;;;21.82;24.59
16613;BME280;8419;52.358;9.752;2023-04-02T12:28:15;101747.00;;;22.56;23.88
16613;BME280;8419;52.358;9.752;2023-04-02T12:31:08;101753.00;;;22.72;23.79
16613;BME280;8419;52.358;9.752;2023-04-02T12:33:56;101763.00;;;23.50;23.30
16613;BME280;8419;52.358;9.752;2023-04-02T12:36:52;101760.00;;;24.03;22.91
16613;BME280;8419;52.358;9.752;2023-04-02T12:39:37;101764.00;;;24.81;22.43
16613;BME280;8419;52.358;9.752;2023-04-02T12:42:32;101760.00;;;25.68;21.81
16613;BME280;8419;52.358;9.752;2023-04-02T12:45:23;101744.00;;;26.52;21.11
16613;BME280;8419;52.358;9.752;2023-04-02T12:48:10;101757.00;;;27.17;20.62
16613;BME280;8419;52.358;9.752;2023-04-02T12:50:57;101755.00;;;27.85;20.15
16613;BME280;8419;52.358;9.752;2023-04-02T12:53:48;101755.00;;;28.52;19.71
16613;BME280;8419;52.358;9.752;2023-04-02T12:56:35;101751.00;;;28.96;19.29
16613;BME280;8419;52.358;9.752;2023-04-02T12:59:32;101754.00;;;28.80;19.35
16613;BME280;8419;52.358;9.752;2023-04-02T13:02:21;101747.00;;;29.00;19.15
16613;BME280;8419;52.358;9.752;2023-04-02T13:05:09;101753.00;;;29.26;18.82
16613;BME280;8419;52.358;9.752;2023-04-02T13:07:55;101752.00;;;29.37;18.65
16613;BME280;8419;52.358;9.752;2023-04-02T13:10:42;101746.00;;;29.72;18.37
16613;BME280;8419;52.358;9.752;2023-04-02T13:13:32;101742.00;;;29.60;18.35
16613;BME280;8419;52.358;9.752;2023-04-02T13:16:26;101755.00;;;29.09;18.55
16613;BME280;8419;52.358;9.752;2023-04-02T13:22:30;101756.00;;;26.43;19.95
16613;BME280;8419;52.358;9.752;2023-04-02T13:25:16;101763.00;;;25.86;20.32
16613;BME280;8419;52.358;9.752;2023-04-02T13:28:01;101754.00;;;25.46;20.50
16613;BME280;8419;52.358;9.752;2023-04-02T13:30:47;101753.00;;;24.81;20.81
16613;BME280;8419;52.358;9.752;2023-04-02T13:33:33;101763.00;;;24.13;21.24
16613;BME280;8419;52.358;9.752;2023-04-02T13:36:18;101765.00;;;23.53;21.59
16613;BME280;8419;52.358;9.752;2023-04-02T13:39:05;101769.00;;;23.03;21.90
16613;BME280;8419;52.358;9.752;2023-04-02T13:42:02;101774.00;;;23.94;21.16
16613;BME280;8419;52.358;9.752;2023-04-02T13:44:48;101771.00;;;24.16;20.85
16613;BME280;8419;52.358;9.752;2023-04-02T13:47:33;101768.00;;;25.12;20.26
16613;BME280;8419;52.358;9.752;2023-04-02T13:50:21;101782.00;;;26.19;19.39
16613;BME280;8419;52.358;9.752;2023-04-02T13:53:15;101787.00;;;27.04;18.67
16613;BME280;8419;52.358;9.752;2023-04-02T13:56:05;101781.00;;;27.92;18.15
16613;BME280;8419;52.358;9.752;2023-04-02T13:58:52;101783.00;;;28.63;17.71
16613;BME280;8419;52.358;9.752;2023-04-02T14:01:38;101781.00;;;29.26;17.37
16613;BME280;8419;52.358;9.752;2023-04-02T14:04:26;101784.00;;;29.45;17.25
16613;BME280;8419;52.358;9.752;2023-04-02T14:07:20;101780.00;;;29.49;17.09
16613;BME280;8419;52.358;9.752;2023-04-02T14:10:16;101781.00;;;28.17;17.95
16613;BME280;8419;52.358;9.752;2023-04-02T14:13:15;101788.00;;;27.11;18.73
16613;BME280;8419;52.358;9.752;2023-04-02T14:16:17;101786.00;;;28.44;17.88
16613;BME280;8419;52.358;9.752;2023-04-02T14:19:18;101787.00;;;29.43;17.15
16613;BME280;8419;52.358;9.752;2023-04-02T14:22:16;101788.00;;;29.69;16.78
16613;BME280;8419;52.358;9.752;2023-04-02T14:25:11;101779.00;;;30.98;16.06
16613;BME280;8419;52.358;9.752;2023-04-02T14:28:04;101791.00;;;31.03;15.86
16613;BME280;8419;52.358;9.752;2023-04-02T14:31:00;101797.00;;;29.61;16.70
16613;BME280;8419;52.358;9.752;2023-04-02T14:33:56;101815.00;;;28.21;17.61
16613;BME280;8419;52.358;9.752;2023-04-02T14:36:54;101802.00;;;26.87;18.52
16613;BME280;8419;52.358;9.752;2023-04-02T14:39:51;101810.00;;;26.06;19.09
16613;BME280;8419;52.358;9.752;2023-04-02T14:42:45;101813.00;;;26.32;18.71
16613;BME280;8419;52.358;9.752;2023-04-02T14:45:45;101817.00;;;25.61;19.11
16613;BME280;8419;52.358;9.752;2023-04-02T14:48:41;101820.00;;;26.72;18.31
16613;BME280;8419;52.358;9.752;2023-04-02T14:51:33;101815.00;;;28.46;17.07
16613;BME280;8419;52.358;9.752;2023-04-02T14:54:28;101818.00;;;29.48;16.24
16613;BME280;8419;52.358;9.752;2023-04-02T14:57:18;101814.00;;;29.59;16.27
16613;BME280;8419;52.358;9.752;2023-04-02T15:00:15;101813.00;;;29.41;16.41
16613;BME280;8419;52.358;9.752;2023-04-02T15:03:08;101809.00;;;29.30;16.38
16613;BME280;8419;52.358;9.752;2023-04-02T15:05:57;101829.00;;;28.60;16.84
16613;BME280;8419;52.358;9.752;2023-04-02T15:08:46;101820.00;;;27.71;17.40
16613;BME280;8419;52.358;9.752;2023-04-02T15:11:36;101834.00;;;26.56;18.25
16613;BME280;8419;52.358;9.752;2023-04-02T15:14:24;101830.00;;;25.76;18.68
16613;BME280;8419;52.358;9.752;2023-04-02T15:17:12;101826.00;;;26.43;18.18